createdAt,value
2019-03-11T00:02:30.277Z,5.00
2019-03-11T00:06:31.196Z,4.70
2019-03-11T00:10:32.071Z,4.50
2019-03-11T00:14:32.964Z,4.30
2019-03-11T00:18:33.936Z,4.30
2019-03-11T00:22:34.901Z,4.10
2019-03-11T00:26:35.783Z,4.30
2019-03-11T00:30:36.641Z,4.70
2019-03-11T00:34:37.526Z,4.80
2019-03-11T00:38:38.588Z,4.70
2019-03-11T00:42:39.533Z,4.20
2019-03-11T00:46:40.397Z,4.50
2019-03-11T00:50:41.366Z,4.70
2019-03-11T00:54:42.271Z,4.70
2019-03-11T00:58:43.133Z,4.40
2019-03-11T01:02:44.138Z,5.00
2019-03-11T01:06:44.983Z,5.50
2019-03-11T01:10:45.979Z,5.20
2019-03-11T01:14:46.951Z,5.20
2019-03-11T01:18:47.825Z,5.00
2019-03-11T01:22:48.783Z,5.50
2019-03-11T01:26:49.658Z,6.00
2019-03-11T01:30:50.531Z,5.60
2019-03-11T01:34:51.442Z,5.80
2019-03-11T01:38:52.322Z,6.20
2019-03-11T01:42:53.158Z,5.80
2019-03-11T01:46:54.140Z,5.30
2019-03-11T01:50:55.025Z,5.30
2019-03-11T01:54:55.907Z,5.40
2019-03-11T01:58:56.841Z,5.00
2019-03-11T02:02:57.726Z,5.40
2019-03-11T02:06:58.611Z,5.50
2019-03-11T02:10:59.486Z,5.10
2019-03-11T02:15:00.507Z,5.40
2019-03-11T02:19:01.416Z,4.90
2019-03-11T02:23:02.288Z,5.70
2019-03-11T02:27:03.353Z,5.80
2019-03-11T02:31:04.243Z,5.30
2019-03-11T02:35:05.308Z,5.10
2019-03-11T02:39:06.798Z,4.80
2019-03-11T02:43:07.773Z,4.90
2019-03-11T02:47:08.694Z,5.30
2019-03-11T02:51:09.755Z,4.60
2019-03-11T02:55:10.743Z,4.60
2019-03-11T02:59:11.692Z,4.60
2019-03-11T03:03:14.477Z,4.70
2019-03-11T03:07:15.477Z,3.90
2019-03-11T03:11:16.438Z,3.80
2019-03-11T03:15:17.310Z,3.90
2019-03-11T03:19:18.283Z,3.80
2019-03-11T03:23:19.232Z,3.40
2019-03-11T03:27:20.138Z,3.30
2019-03-11T03:31:20.987Z,3.50
2019-03-11T03:35:21.899Z,4.20
2019-03-11T03:39:22.859Z,3.90
2019-03-11T03:43:23.731Z,3.40
2019-03-11T03:47:24.615Z,3.80
2019-03-11T03:51:25.487Z,3.90
2019-03-11T03:55:26.374Z,3.10
2019-03-11T03:59:27.240Z,3.10
2019-03-11T04:03:48.070Z,3.00
2019-03-11T04:07:49.132Z,3.30
2019-03-11T04:11:50.121Z,3.20
2019-03-11T04:15:51.213Z,2.20
2019-03-11T04:19:52.167Z,2.90
2019-03-11T04:23:53.169Z,2.60
2019-03-11T04:27:54.232Z,3.20
2019-03-11T04:31:55.111Z,3.10
2019-03-11T04:35:56.095Z,4.20
2019-03-11T04:39:56.959Z,3.40
2019-03-11T04:43:57.829Z,3.50
2019-03-11T04:47:58.783Z,3.80
2019-03-11T04:51:59.870Z,2.30
2019-03-11T04:56:00.974Z,2.80
2019-03-11T05:00:03.343Z,2.50
2019-03-11T05:04:04.259Z,3.20
2019-03-11T05:08:05.156Z,2.90
2019-03-11T05:12:06.035Z,3.70
2019-03-11T05:16:06.940Z,2.90
2019-03-11T05:20:10.316Z,2.80
2019-03-11T05:24:11.327Z,3.00
2019-03-11T05:28:12.415Z,1.80
2019-03-11T05:32:13.296Z,2.10
2019-03-11T05:36:14.150Z,2.00
2019-03-11T05:40:16.285Z,2.10
2019-03-11T05:44:17.145Z,2.40
2019-03-11T05:48:18.040Z,2.60
2019-03-11T05:52:18.894Z,2.10
2019-03-11T05:56:19.765Z,2.00
2019-03-11T06:00:28.541Z,2.10
2019-03-11T06:04:29.410Z,2.80
2019-03-11T06:08:30.456Z,2.40
2019-03-11T06:12:31.391Z,2.50
2019-03-11T06:16:32.916Z,2.80
2019-03-11T06:20:38.552Z,2.10
2019-03-11T06:24:39.403Z,2.50
2019-03-11T06:28:40.403Z,2.90
2019-03-11T06:32:41.442Z,2.90
2019-03-11T06:36:42.432Z,3.50
2019-03-11T06:40:45.737Z,2.60
2019-03-11T06:44:46.205Z,2.80
2019-03-11T06:48:47.488Z,2.70
2019-03-11T06:52:48.558Z,3.30
2019-03-11T06:56:49.439Z,2.80
2019-03-11T07:00:50.321Z,3.60
2019-03-11T07:04:51.287Z,3.00
2019-03-11T07:08:52.205Z,3.30
2019-03-11T07:12:53.074Z,3.30
2019-03-11T07:16:54.181Z,2.90
2019-03-11T07:20:55.197Z,3.40
2019-03-11T07:24:56.096Z,3.20
2019-03-11T07:28:57.053Z,2.90
2019-03-11T07:32:58.149Z,3.20
2019-03-11T07:36:59.103Z,3.50
2019-03-11T07:41:00.359Z,3.00
2019-03-11T07:45:01.504Z,3.30
2019-03-11T07:49:02.588Z,3.80
2019-03-11T07:53:03.770Z,4.10
2019-03-11T07:57:04.786Z,4.40
2019-03-11T08:01:05.669Z,4.60
2019-03-11T08:05:08.249Z,4.70
2019-03-11T08:09:09.172Z,4.50
2019-03-11T08:13:10.044Z,4.10
2019-03-11T08:17:10.942Z,4.20
2019-03-11T08:21:11.889Z,4.30
2019-03-11T08:25:13.874Z,4.70
2019-03-11T08:29:14.740Z,5.00
2019-03-11T08:33:15.905Z,4.90
2019-03-11T08:37:16.880Z,3.90
2019-03-11T08:41:17.758Z,5.00
2019-03-11T08:45:19.153Z,4.20
2019-03-11T08:49:21.453Z,3.30
2019-03-11T08:53:22.404Z,3.60
2019-03-11T08:57:23.363Z,3.90
2019-03-11T09:01:24.269Z,3.20
2019-03-11T09:05:25.273Z,2.80
2019-03-11T09:09:26.745Z,2.70
2019-03-11T09:13:27.893Z,2.90
2019-03-11T09:17:28.773Z,2.90
2019-03-11T09:21:29.650Z,3.00
2019-03-11T09:25:30.530Z,3.10
2019-03-11T09:29:31.471Z,3.20
2019-03-11T09:33:32.374Z,3.60
2019-03-11T09:37:33.346Z,4.00
2019-03-11T09:41:34.313Z,3.80
2019-03-11T09:45:35.368Z,4.30
2019-03-11T09:49:36.234Z,5.30
2019-03-11T09:53:37.133Z,4.40
2019-03-11T09:57:38.063Z,3.50
2019-03-11T10:01:39.018Z,3.60
2019-03-11T10:05:39.973Z,4.10
2019-03-11T10:09:40.993Z,4.20
2019-03-11T10:13:42.147Z,4.30
2019-03-11T10:17:43.259Z,3.90
2019-03-11T10:21:44.229Z,4.10
2019-03-11T10:25:45.337Z,4.60
2019-03-11T10:29:46.309Z,4.10
2019-03-11T10:33:47.200Z,3.50
2019-03-11T10:37:48.339Z,3.50
2019-03-11T10:41:49.403Z,4.00
2019-03-11T10:45:50.354Z,3.80
2019-03-11T10:49:51.241Z,3.50
2019-03-11T10:53:52.116Z,3.50
2019-03-11T10:57:53.087Z,3.50
2019-03-11T11:01:54.068Z,3.90
2019-03-11T11:05:55.082Z,4.10
2019-03-11T11:09:56.101Z,3.70
2019-03-11T11:13:56.996Z,4.20
2019-03-11T11:17:57.867Z,4.70
2019-03-11T11:21:58.782Z,4.50
2019-03-11T11:25:59.845Z,5.50
2019-03-11T11:30:00.859Z,5.00
2019-03-11T11:34:01.843Z,4.70
2019-03-11T11:38:02.828Z,5.20
2019-03-11T11:42:03.919Z,4.00
2019-03-11T11:46:04.907Z,5.20
2019-03-11T11:50:12.395Z,4.00
2019-03-11T11:54:13.336Z,4.20
2019-03-11T11:58:14.293Z,5.30
2019-03-11T12:02:15.260Z,5.50
2019-03-11T12:06:16.148Z,5.50
2019-03-11T12:10:19.143Z,5.10
2019-03-11T12:14:20.016Z,5.20
2019-03-11T12:18:21.010Z,5.70
2019-03-11T12:22:22.103Z,6.20
2019-03-11T12:26:22.976Z,6.40
2019-03-11T12:30:28.186Z,6.50
2019-03-11T12:34:29.068Z,6.00
2019-03-11T12:38:30.095Z,5.60
2019-03-11T12:42:31.097Z,6.00
2019-03-11T12:46:31.932Z,5.50
2019-03-11T12:50:32.927Z,5.00
2019-03-11T12:54:33.873Z,5.50
2019-03-11T12:58:41.504Z,6.50
2019-03-11T13:02:37.530Z,7.60
2019-03-11T13:06:38.393Z,6.40
2019-03-11T13:10:39.325Z,7.60
2019-03-11T13:14:40.341Z,6.40
2019-03-11T13:18:41.476Z,5.90
2019-03-11T13:22:42.522Z,6.50
2019-03-11T13:26:43.385Z,6.90
2019-03-11T13:30:44.411Z,6.30
2019-03-11T13:34:45.358Z,5.50
2019-03-11T13:38:46.474Z,6.30
2019-03-11T13:42:47.429Z,6.40
2019-03-11T13:46:48.311Z,7.00
2019-03-11T13:50:49.207Z,7.40
2019-03-11T13:54:50.145Z,7.70
2019-03-11T13:58:51.086Z,8.00
2019-03-11T14:02:51.955Z,7.70
2019-03-11T14:06:52.942Z,7.50
2019-03-11T14:10:53.964Z,6.10
2019-03-11T14:14:54.845Z,5.60
2019-03-11T14:18:55.720Z,6.30
2019-03-11T14:22:56.727Z,6.00
2019-03-11T14:26:57.740Z,6.70
2019-03-11T14:30:58.854Z,7.40
2019-03-11T14:34:59.932Z,7.30
2019-03-11T14:39:00.831Z,7.00
2019-03-11T14:43:01.766Z,6.90
2019-03-11T14:47:02.862Z,6.30
2019-03-11T14:51:03.909Z,5.90
2019-03-11T14:55:07.245Z,5.50
2019-03-11T14:59:08.231Z,4.20
2019-03-11T15:03:09.270Z,4.60
2019-03-11T15:07:10.426Z,5.40
2019-03-11T15:11:11.478Z,5.60
2019-03-11T15:15:21.131Z,5.80
2019-03-11T15:19:22.087Z,6.40
2019-03-11T15:23:23.050Z,5.80
2019-03-11T15:27:24.006Z,6.30
2019-03-11T15:31:24.905Z,6.90
2019-03-11T15:35:25.805Z,5.30
2019-03-11T15:39:26.693Z,5.00
2019-03-11T15:43:27.821Z,5.10
2019-03-11T15:47:29.849Z,4.90
2019-03-11T15:51:36.488Z,5.60
2019-03-11T15:55:33.651Z,6.00
2019-03-11T15:59:34.595Z,5.60
2019-03-11T16:03:36.532Z,5.70
2019-03-11T16:07:37.775Z,5.80
2019-03-11T16:11:38.816Z,4.90
2019-03-11T16:15:39.974Z,4.90
2019-03-11T16:19:41.444Z,6.10
2019-03-11T16:23:42.589Z,6.00
2019-03-11T16:27:43.715Z,5.30
2019-03-11T16:31:44.916Z,5.70
2019-03-11T16:35:45.886Z,5.70
2019-03-11T16:39:46.773Z,5.50
2019-03-11T16:43:47.721Z,5.20
2019-03-11T16:47:48.766Z,4.60
2019-03-11T16:51:49.852Z,4.90
2019-03-11T16:55:53.632Z,5.00
2019-03-11T16:59:54.526Z,5.20
2019-03-11T17:03:55.719Z,5.30
2019-03-11T17:07:56.805Z,5.30
2019-03-11T17:11:57.734Z,5.30
2019-03-11T17:15:58.648Z,4.90
2019-03-11T17:19:59.499Z,5.20
2019-03-11T17:24:00.520Z,5.20
2019-03-11T17:28:01.544Z,4.80
2019-03-11T17:32:02.816Z,5.30
2019-03-11T17:36:03.838Z,5.20
2019-03-11T17:40:16.889Z,5.00
2019-03-11T17:44:17.963Z,5.70
2019-03-11T17:48:18.997Z,5.40
2019-03-11T17:52:20.054Z,5.60
2019-03-11T17:56:20.931Z,5.30
2019-03-11T18:00:27.827Z,5.70
2019-03-11T18:04:28.955Z,5.60
2019-03-11T18:08:30.003Z,5.00
2019-03-11T18:12:30.983Z,5.20
2019-03-11T18:16:32.008Z,5.80
2019-03-11T18:20:33.125Z,5.80
2019-03-11T18:24:34.235Z,5.40
2019-03-11T18:28:35.326Z,5.30
2019-03-11T18:32:36.395Z,5.70
2019-03-11T18:36:37.326Z,5.50
2019-03-11T18:40:38.342Z,5.80
2019-03-11T18:44:39.419Z,5.80
2019-03-11T18:48:40.428Z,4.70
2019-03-11T18:52:41.677Z,5.20
2019-03-11T18:56:42.916Z,4.90
2019-03-11T19:00:43.999Z,5.70
2019-03-11T19:04:44.868Z,5.10
2019-03-11T19:08:45.891Z,4.80
2019-03-11T19:12:47.278Z,4.70
2019-03-11T19:16:48.421Z,5.30
2019-03-11T19:20:49.409Z,5.10
2019-03-11T19:24:50.447Z,5.40
2019-03-11T19:28:51.509Z,4.40
2019-03-11T19:32:52.625Z,4.80
2019-03-11T19:36:53.520Z,5.70
2019-03-11T19:40:54.533Z,4.80
2019-03-11T19:44:55.539Z,4.60
2019-03-11T19:48:56.664Z,4.40
2019-03-11T19:52:59.435Z,4.20
2019-03-11T19:57:00.739Z,5.30
2019-03-11T20:01:01.837Z,5.00
2019-03-11T20:05:04.971Z,4.70
2019-03-11T20:09:07.717Z,4.70
2019-03-11T20:13:09.088Z,4.90
2019-03-11T20:17:10.151Z,5.10
2019-03-11T20:21:11.321Z,5.10
2019-03-11T20:25:15.823Z,5.20
2019-03-11T20:29:16.762Z,5.40
2019-03-11T20:33:17.817Z,5.30
2019-03-11T20:37:18.985Z,5.10
2019-03-11T20:41:19.920Z,5.00
2019-03-11T20:45:21.221Z,5.10
2019-03-11T20:49:22.121Z,5.00
2019-03-11T20:53:23.201Z,5.10
2019-03-11T20:57:24.158Z,5.40
2019-03-11T21:01:25.258Z,5.50
2019-03-11T21:05:29.791Z,5.80
2019-03-11T21:09:30.783Z,4.90
2019-03-11T21:13:31.755Z,4.60
2019-03-11T21:17:32.735Z,5.50
2019-03-11T21:21:33.855Z,5.50
2019-03-11T21:25:34.914Z,6.00
2019-03-11T21:29:38.522Z,5.30
2019-03-11T21:33:38.737Z,6.20
2019-03-11T21:37:39.864Z,5.70
2019-03-11T21:41:40.881Z,5.00
2019-03-11T21:45:41.862Z,5.30
2019-03-11T21:49:42.903Z,5.80
2019-03-11T21:53:44.905Z,5.30
2019-03-11T21:57:46.021Z,5.80
2019-03-11T22:01:47.021Z,5.10
2019-03-11T22:05:48.169Z,5.20
2019-03-11T22:09:49.108Z,4.80
2019-03-11T22:13:50.021Z,4.60
2019-03-11T22:17:51.164Z,5.20
2019-03-11T22:21:52.217Z,5.50
2019-03-11T22:25:53.098Z,5.10
2019-03-11T22:29:54.085Z,5.50
2019-03-11T22:33:54.986Z,5.50
2019-03-11T22:37:55.968Z,5.70
2019-03-11T22:41:56.950Z,5.80
2019-03-11T22:45:57.862Z,6.40
2019-03-11T22:49:58.735Z,6.80
2019-03-11T22:53:59.587Z,6.10
2019-03-11T22:58:00.469Z,6.60
2019-03-11T23:02:01.649Z,5.60
2019-03-11T23:06:03.026Z,7.60
2019-03-11T23:10:05.827Z,7.70
2019-03-11T23:14:06.792Z,7.60
2019-03-11T23:18:07.862Z,7.70
2019-03-11T23:22:08.766Z,7.20
2019-03-11T23:26:09.634Z,7.10
2019-03-11T23:30:12.506Z,7.40
2019-03-11T23:34:13.491Z,6.20
2019-03-11T23:38:14.518Z,7.60
2019-03-11T23:42:15.392Z,7.50
2019-03-11T23:46:16.384Z,6.70
2019-03-11T23:50:19.529Z,7.20
2019-03-11T23:54:20.082Z,6.60
2019-03-11T23:58:20.972Z,6.80
